GCHI/VDE METAR and TAF weather

Enter ICAO airport designator
Station Type Date Time Source
GCHI METAR 2018/10/19 16:00 UTC NOAA

GCHI 191600Z 36010KT 330V030 9999 FEW025 SCT060 24/16 Q1015


Station Type Date Time Source
GCHI Decoded METAR 2018/10/19 16:00 UTC NOAA

Hierro / Aeropuerto, Spain (GCHI) 27-49N 017-53W 32M
Oct 19, 2018 - 12:00 PM EDT / 2018.10.19 1600 UTC
Wind: from the N (360 degrees) at 12 MPH (10 KT) (direction variable):0
Visibility: greater than 7 mile(s):0
Sky conditions: partly cloudy
Temperature: 75 F (24 C)
Dew Point: 60 F (16 C)
Relative Humidity: 60%
Pressure (altimeter): 29.97 in. Hg (1015 hPa)
ob: GCHI 191600Z 36010KT 330V030 9999 FEW025 SCT060 24/16 Q1015
cycle: 16

Station Type Date Time Source
GCHI TAF 2018/10/19 15:00 UTC NOAA

TAF GCHI 191400Z 1915/2015 03013KT 9999 SCT025 TX25/2014Z TN20/2005Z PROB40
TEMPO 1916/2004 RA


Example: see airport list